Terminal Aerodrome Forecast
Issued by NWS Newport/Morehead City, NC

Home | Current Version | Previous Version | Graphics & Text | Print | Product List | Glossary On
Versions: 1 2 3 4 5 6 7 8 9 10 11 12 13 14 15 16
000
FTUS42 KMHX 250521
TAFEWN
TAF
KEWN 250521Z 2506/2606 20007KT P6SM SCT015 BKN060
     FM251000 26006KT P6SM VCSH SCT005 OVC050
     FM251400 28005KT P6SM SCT025 BKN060
     FM252300 22005KT P6SM SCT025 BKN040=

USA.gov is the U.S. government's official web portal to all federal, state and local government web resources and services.